sensor_id;sensor_type;location;lat;lon;timestamp;pressure;altitude;pressure_sealevel;temperature;humidity
60874;BME280;46715;40.642;-7.920;2023-02-15T00:00:32;96731.84;;;11.15;62.53
60874;BME280;46715;40.642;-7.920;2023-02-15T00:02:33;96733.13;;;11.17;62.78
60874;BME280;46715;40.642;-7.920;2023-02-15T00:04:34;96735.53;;;11.34;61.88
60874;BME280;46715;40.642;-7.920;2023-02-15T00:06:47;96740.22;;;11.37;62.11
60874;BME280;46715;40.642;-7.920;2023-02-15T00:08:48;96736.31;;;11.50;61.00
60874;BME280;46715;40.642;-7.920;2023-02-15T00:10:49;96735.03;;;11.58;60.72
60874;BME280;46715;40.642;-7.920;2023-02-15T00:12:50;96746.75;;;11.55;60.92
60874;BME280;46715;40.642;-7.920;2023-02-15T00:14:51;96746.78;;;11.60;60.57
60874;BME280;46715;40.642;-7.920;2023-02-15T00:16:52;96744.16;;;11.60;60.58
60874;BME280;46715;40.642;-7.920;2023-02-15T00:18:53;96747.00;;;11.59;60.84
60874;BME280;46715;40.642;-7.920;2023-02-15T00:20:54;96750.16;;;11.61;60.42
60874;BME280;46715;40.642;-7.920;2023-02-15T00:22:55;96751.47;;;11.64;60.33
60874;BME280;46715;40.642;-7.920;2023-02-15T00:24:56;96742.06;;;11.52;60.50
60874;BME280;46715;40.642;-7.920;2023-02-15T00:26:57;96744.66;;;11.47;60.85
60874;BME280;46715;40.642;-7.920;2023-02-15T00:28:58;96747.00;;;11.43;61.28
60874;BME280;46715;40.642;-7.920;2023-02-15T00:31:07;96759.81;;;11.40;61.24
60874;BME280;46715;40.642;-7.920;2023-02-15T00:33:09;96756.16;;;11.36;61.44
60874;BME280;46715;40.642;-7.920;2023-02-15T00:35:10;96749.09;;;11.36;61.48
60874;BME280;46715;40.642;-7.920;2023-02-15T00:37:11;96744.91;;;11.30;61.54
60874;BME280;46715;40.642;-7.920;2023-02-15T00:39:12;96739.13;;;11.23;61.53
60874;BME280;46715;40.642;-7.920;2023-02-15T00:41:13;96740.97;;;11.22;62.00
60874;BME280;46715;40.642;-7.920;2023-02-15T00:43:14;96733.94;;;11.18;61.91
60874;BME280;46715;40.642;-7.920;2023-02-15T00:45:16;96734.19;;;11.16;61.78
60874;BME280;46715;40.642;-7.920;2023-02-15T00:47:17;96736.28;;;11.19;61.83
60874;BME280;46715;40.642;-7.920;2023-02-15T00:49:18;96736.00;;;11.16;62.09
60874;BME280;46715;40.642;-7.920;2023-02-15T00:51:19;96728.97;;;11.11;62.07
60874;BME280;46715;40.642;-7.920;2023-02-15T00:53:22;96738.63;;;11.11;62.03
60874;BME280;46715;40.642;-7.920;2023-02-15T00:55:23;96740.69;;;11.08;62.57
60874;BME280;46715;40.642;-7.920;2023-02-15T00:57:24;96746.16;;;11.02;62.47
60874;BME280;46715;40.642;-7.920;2023-02-15T00:59:24;96744.84;;;11.04;62.58
60874;BME280;46715;40.642;-7.920;2023-02-15T01:01:25;96736.50;;;10.97;63.17
60874;BME280;46715;40.642;-7.920;2023-02-15T01:03:26;96740.94;;;10.97;63.27
60874;BME280;46715;40.642;-7.920;2023-02-15T01:05:27;96735.94;;;10.95;62.93
60874;BME280;46715;40.642;-7.920;2023-02-15T01:07:30;96735.97;;;10.90;62.99
60874;BME280;46715;40.642;-7.920;2023-02-15T01:09:30;96740.13;;;10.86;63.07
60874;BME280;46715;40.642;-7.920;2023-02-15T01:11:32;96739.03;;;10.77;63.28
60874;BME280;46715;40.642;-7.920;2023-02-15T01:13:33;96747.13;;;10.75;63.71
60874;BME280;46715;40.642;-7.920;2023-02-15T01:15:35;96740.84;;;10.71;64.07
60874;BME280;46715;40.642;-7.920;2023-02-15T01:17:36;96735.63;;;10.71;63.94
60874;BME280;46715;40.642;-7.920;2023-02-15T01:19:37;96748.94;;;10.69;64.04
60874;BME280;46715;40.642;-7.920;2023-02-15T01:21:40;96736.16;;;10.68;63.98
60874;BME280;46715;40.642;-7.920;2023-02-15T01:23:44;96742.66;;;10.65;64.47
60874;BME280;46715;40.642;-7.920;2023-02-15T01:25:46;96748.38;;;10.62;64.47
60874;BME280;46715;40.642;-7.920;2023-02-15T01:27:47;96747.84;;;10.60;64.49
60874;BME280;46715;40.642;-7.920;2023-02-15T01:29:48;96742.84;;;10.53;64.23
60874;BME280;46715;40.642;-7.920;2023-02-15T01:31:50;96749.59;;;10.44;64.66
60874;BME280;46715;40.642;-7.920;2023-02-15T01:33:52;96738.28;;;10.28;64.88
60874;BME280;46715;40.642;-7.920;2023-02-15T01:35:57;96750.22;;;10.24;65.21
60874;BME280;46715;40.642;-7.920;2023-02-15T01:37:58;96738.97;;;10.13;65.65
60874;BME280;46715;40.642;-7.920;2023-02-15T01:39:59;96740.75;;;10.07;65.92
60874;BME280;46715;40.642;-7.920;2023-02-15T01:42:00;96736.88;;;10.10;66.40
60874;BME280;46715;40.642;-7.920;2023-02-15T01:44:02;96738.94;;;10.08;66.58
60874;BME280;46715;40.642;-7.920;2023-02-15T01:46:03;96742.41;;;10.19;66.51
60874;BME280;46715;40.642;-7.920;2023-02-15T01:48:27;96740.56;;;10.19;66.29
60874;BME280;46715;40.642;-7.920;2023-02-15T01:52:38;96742.19;;;10.31;66.17
60874;BME280;46715;40.642;-7.920;2023-02-15T01:54:40;96741.13;;;10.27;66.02
60874;BME280;46715;40.642;-7.920;2023-02-15T01:56:43;96739.28;;;10.22;66.10
60874;BME280;46715;40.642;-7.920;2023-02-15T01:58:45;96738.47;;;10.16;66.05
60874;BME280;46715;40.642;-7.920;2023-02-15T02:00:47;96741.56;;;10.13;66.66
60874;BME280;46715;40.642;-7.920;2023-02-15T02:02:51;96747.28;;;10.10;66.56
60874;BME280;46715;40.642;-7.920;2023-02-15T02:05:00;96749.63;;;10.06;66.57
60874;BME280;46715;40.642;-7.920;2023-02-15T02:07:07;96749.88;;;10.05;66.64
60874;BME280;46715;40.642;-7.920;2023-02-15T02:09:12;96748.00;;;10.00;66.77
60874;BME280;46715;40.642;-7.920;2023-02-15T02:11:14;96748.22;;;9.88;66.93
60874;BME280;46715;40.642;-7.920;2023-02-15T02:13:15;96746.31;;;9.79;67.17
60874;BME280;46715;40.642;-7.920;2023-02-15T02:15:16;96750.19;;;9.76;68.15
60874;BME280;46715;40.642;-7.920;2023-02-15T02:17:31;96754.34;;;9.77;68.65
60874;BME280;46715;40.642;-7.920;2023-02-15T02:36:19;96759.06;;;10.18;67.46
60874;BME280;46715;40.642;-7.920;2023-02-15T02:45:20;96762.06;;;9.99;67.56
60874;BME280;46715;40.642;-7.920;2023-02-15T02:47:31;96757.34;;;9.96;67.83
60874;BME280;46715;40.642;-7.920;2023-02-15T02:49:36;96750.88;;;9.99;67.94
60874;BME280;46715;40.642;-7.920;2023-02-15T02:51:37;96745.41;;;10.00;68.39
60874;BME280;46715;40.642;-7.920;2023-02-15T02:53:38;96752.50;;;10.10;68.00
60874;BME280;46715;40.642;-7.920;2023-02-15T02:58:07;96755.66;;;10.12;68.06
60874;BME280;46715;40.642;-7.920;2023-02-15T03:00:11;96753.53;;;10.09;68.39
60874;BME280;46715;40.642;-7.920;2023-02-15T03:02:28;96750.91;;;10.09;68.29
60874;BME280;46715;40.642;-7.920;2023-02-15T03:04:35;96753.34;;;10.21;67.68
60874;BME280;46715;40.642;-7.920;2023-02-15T03:06:39;96746.91;;;10.29;67.58
60874;BME280;46715;40.642;-7.920;2023-02-15T03:08:44;96744.78;;;10.26;67.56
60874;BME280;46715;40.642;-7.920;2023-02-15T03:10:48;96747.38;;;10.20;67.76
60874;BME280;46715;40.642;-7.920;2023-02-15T03:12:52;96747.66;;;10.29;67.58
60874;BME280;46715;40.642;-7.920;2023-02-15T03:14:58;96751.59;;;10.32;67.61
60874;BME280;46715;40.642;-7.920;2023-02-15T03:17:01;96746.44;;;10.42;67.09
60874;BME280;46715;40.642;-7.920;2023-02-15T03:19:05;96749.41;;;10.61;66.75
60874;BME280;46715;40.642;-7.920;2023-02-15T03:21:08;96747.91;;;10.75;65.96
60874;BME280;46715;40.642;-7.920;2023-02-15T03:23:24;96742.97;;;10.89;65.13
60874;BME280;46715;40.642;-7.920;2023-02-15T03:25:39;96746.38;;;10.85;65.54
60874;BME280;46715;40.642;-7.920;2023-02-15T03:27:45;96744.53;;;10.85;65.15
60874;BME280;46715;40.642;-7.920;2023-02-15T03:29:51;96756.53;;;10.86;65.55
60874;BME280;46715;40.642;-7.920;2023-02-15T03:32:02;96759.44;;;10.95;64.70
60874;BME280;46715;40.642;-7.920;2023-02-15T03:34:05;96749.25;;;10.94;65.07
60874;BME280;46715;40.642;-7.920;2023-02-15T03:36:12;96751.38;;;10.97;64.85
60874;BME280;46715;40.642;-7.920;2023-02-15T03:38:31;96747.66;;;10.82;65.41
60874;BME280;46715;40.642;-7.920;2023-02-15T03:40:38;96746.56;;;10.73;65.99
60874;BME280;46715;40.642;-7.920;2023-02-15T03:43:49;96751.00;;;10.62;66.43
60874;BME280;46715;40.642;-7.920;2023-02-15T03:45:26;96752.81;;;10.67;66.34
60874;BME280;46715;40.642;-7.920;2023-02-15T03:47:35;96754.84;;;10.54;66.45
60874;BME280;46715;40.642;-7.920;2023-02-15T03:49:56;96748.88;;;10.59;66.34
60874;BME280;46715;40.642;-7.920;2023-02-15T03:51:59;96758.75;;;10.52;66.83
60874;BME280;46715;40.642;-7.920;2023-02-15T03:56:10;96753.28;;;10.48;66.87
60874;BME280;46715;40.642;-7.920;2023-02-15T03:58:11;96760.84;;;10.50;66.76
60874;BME280;46715;40.642;-7.920;2023-02-15T04:00:35;96766.31;;;10.48;66.46
60874;BME280;46715;40.642;-7.920;2023-02-15T04:03:17;96769.41;;;10.45;66.92
60874;BME280;46715;40.642;-7.920;2023-02-15T04:05:20;96768.59;;;10.34;66.96
60874;BME280;46715;40.642;-7.920;2023-02-15T04:07:22;96772.66;;;10.25;67.18
60874;BME280;46715;40.642;-7.920;2023-02-15T04:09:23;96773.13;;;10.17;67.14
60874;BME280;46715;40.642;-7.920;2023-02-15T04:11:43;96783.25;;;10.08;67.41
60874;BME280;46715;40.642;-7.920;2023-02-15T04:13:44;96779.97;;;9.90;67.93
60874;BME280;46715;40.642;-7.920;2023-02-15T04:15:45;96786.66;;;9.76;68.29
60874;BME280;46715;40.642;-7.920;2023-02-15T04:18:04;96791.69;;;9.55;68.45
60874;BME280;46715;40.642;-7.920;2023-02-15T04:20:05;96790.53;;;9.46;68.83
60874;BME280;46715;40.642;-7.920;2023-02-15T04:22:25;96793.84;;;9.36;69.30
60874;BME280;46715;40.642;-7.920;2023-02-15T04:24:44;96788.00;;;9.24;70.51
60874;BME280;46715;40.642;-7.920;2023-02-15T04:27:04;96787.31;;;9.34;70.54
60874;BME280;46715;40.642;-7.920;2023-02-15T04:29:06;96791.47;;;9.35;70.48
60874;BME280;46715;40.642;-7.920;2023-02-15T04:31:07;96791.19;;;9.31;70.49
60874;BME280;46715;40.642;-7.920;2023-02-15T04:33:08;96798.06;;;9.15;70.55
60874;BME280;46715;40.642;-7.920;2023-02-15T04:35:09;96798.97;;;9.04;70.85
60874;BME280;46715;40.642;-7.920;2023-02-15T04:37:10;96801.41;;;8.89;71.48
60874;BME280;46715;40.642;-7.920;2023-02-15T04:39:15;96801.50;;;8.77;71.45
60874;BME280;46715;40.642;-7.920;2023-02-15T04:41:16;96813.91;;;8.69;71.79
60874;BME280;46715;40.642;-7.920;2023-02-15T04:43:20;96803.75;;;8.68;71.87
60874;BME280;46715;40.642;-7.920;2023-02-15T04:45:23;96802.09;;;8.62;71.64
60874;BME280;46715;40.642;-7.920;2023-02-15T04:47:24;96806.44;;;8.56;72.05
60874;BME280;46715;40.642;-7.920;2023-02-15T04:49:25;96808.88;;;8.63;73.07
60874;BME280;46715;40.642;-7.920;2023-02-15T04:51:26;96806.19;;;8.58;72.72
60874;BME280;46715;40.642;-7.920;2023-02-15T04:53:27;96798.88;;;8.55;73.43
60874;BME280;46715;40.642;-7.920;2023-02-15T04:55:27;96805.59;;;8.50;72.84
60874;BME280;46715;40.642;-7.920;2023-02-15T04:57:28;96805.59;;;8.50;73.06
60874;BME280;46715;40.642;-7.920;2023-02-15T04:59:29;96809.53;;;8.53;73.14
60874;BME280;46715;40.642;-7.920;2023-02-15T05:01:30;96801.91;;;8.46;74.43
60874;BME280;46715;40.642;-7.920;2023-02-15T05:03:31;96800.75;;;8.59;74.52
60874;BME280;46715;40.642;-7.920;2023-02-15T05:05:32;96805.53;;;8.67;74.24
60874;BME280;46715;40.642;-7.920;2023-02-15T05:07:32;96800.97;;;8.75;73.59
60874;BME280;46715;40.642;-7.920;2023-02-15T05:09:33;96795.41;;;8.88;73.54
60874;BME280;46715;40.642;-7.920;2023-02-15T05:11:34;96808.34;;;9.05;72.76
60874;BME280;46715;40.642;-7.920;2023-02-15T05:13:35;96811.00;;;9.10;72.98
60874;BME280;46715;40.642;-7.920;2023-02-15T05:15:36;96806.16;;;9.19;71.98
60874;BME280;46715;40.642;-7.920;2023-02-15T05:17:37;96812.75;;;9.27;71.82
60874;BME280;46715;40.642;-7.920;2023-02-15T05:19:37;96809.47;;;9.36;71.10
60874;BME280;46715;40.642;-7.920;2023-02-15T05:21:38;96808.50;;;9.43;70.92
60874;BME280;46715;40.642;-7.920;2023-02-15T05:23:39;96806.66;;;9.43;70.77
60874;BME280;46715;40.642;-7.920;2023-02-15T05:25:40;96811.63;;;9.45;70.68
60874;BME280;46715;40.642;-7.920;2023-02-15T05:27:59;96808.97;;;9.39;70.62
60874;BME280;46715;40.642;-7.920;2023-02-15T05:30:18;96815.22;;;9.38;70.66
60874;BME280;46715;40.642;-7.920;2023-02-15T05:32:19;96815.09;;;9.28;70.96
60874;BME280;46715;40.642;-7.920;2023-02-15T05:34:20;96824.00;;;9.32;70.76
60874;BME280;46715;40.642;-7.920;2023-02-15T05:36:21;96817.25;;;9.36;70.81
60874;BME280;46715;40.642;-7.920;2023-02-15T05:38:21;96818.84;;;9.37;70.46
60874;BME280;46715;40.642;-7.920;2023-02-15T05:40:22;96816.81;;;9.45;70.45
60874;BME280;46715;40.642;-7.920;2023-02-15T05:42:23;96817.91;;;9.49;70.22
60874;BME280;46715;40.642;-7.920;2023-02-15T05:44:24;96815.00;;;9.45;70.45
60874;BME280;46715;40.642;-7.920;2023-02-15T05:46:25;96822.91;;;9.55;70.01
60874;BME280;46715;40.642;-7.920;2023-02-15T05:48:26;96822.63;;;9.52;70.04
60874;BME280;46715;40.642;-7.920;2023-02-15T05:50:27;96825.53;;;9.55;69.89
60874;BME280;46715;40.642;-7.920;2023-02-15T05:52:28;96827.88;;;9.57;69.57
60874;BME280;46715;40.642;-7.920;2023-02-15T05:54:29;96831.41;;;9.46;69.95
60874;BME280;46715;40.642;-7.920;2023-02-15T05:56:30;96834.28;;;9.44;70.07
60874;BME280;46715;40.642;-7.920;2023-02-15T05:58:33;96838.22;;;9.47;70.20
60874;BME280;46715;40.642;-7.920;2023-02-15T06:00:34;96839.72;;;9.43;70.33
60874;BME280;46715;40.642;-7.920;2023-02-15T06:02:37;96844.03;;;9.32;70.75
60874;BME280;46715;40.642;-7.920;2023-02-15T06:04:38;96841.19;;;9.33;70.84
60874;BME280;46715;40.642;-7.920;2023-02-15T06:06:39;96839.06;;;9.30;70.96
60874;BME280;46715;40.642;-7.920;2023-02-15T06:08:40;96834.75;;;9.41;70.61
60874;BME280;46715;40.642;-7.920;2023-02-15T06:10:41;96834.56;;;9.48;70.08
60874;BME280;46715;40.642;-7.920;2023-02-15T06:12:44;96836.69;;;9.51;70.04
60874;BME280;46715;40.642;-7.920;2023-02-15T06:14:45;96842.84;;;9.45;70.04
60874;BME280;46715;40.642;-7.920;2023-02-15T06:16:45;96836.88;;;9.44;70.19
60874;BME280;46715;40.642;-7.920;2023-02-15T06:18:46;96841.34;;;9.49;70.31
60874;BME280;46715;40.642;-7.920;2023-02-15T06:20:48;96834.50;;;9.70;69.45
60874;BME280;46715;40.642;-7.920;2023-02-15T06:22:49;96831.69;;;9.77;69.03
60874;BME280;46715;40.642;-7.920;2023-02-15T06:24:49;96832.41;;;9.99;68.22
60874;BME280;46715;40.642;-7.920;2023-02-15T06:26:51;96845.28;;;10.11;67.70
60874;BME280;46715;40.642;-7.920;2023-02-15T06:28:52;96847.69;;;10.18;67.30
60874;BME280;46715;40.642;-7.920;2023-02-15T06:30:53;96838.84;;;10.19;66.82
60874;BME280;46715;40.642;-7.920;2023-02-15T06:32:54;96843.19;;;10.08;67.52
60874;BME280;46715;40.642;-7.920;2023-02-15T06:34:55;96850.19;;;10.07;67.56
60874;BME280;46715;40.642;-7.920;2023-02-15T06:36:55;96851.72;;;10.03;67.78
60874;BME280;46715;40.642;-7.920;2023-02-15T06:38:57;96854.56;;;9.97;68.09
60874;BME280;46715;40.642;-7.920;2023-02-15T06:40:57;96849.63;;;10.00;67.91
60874;BME280;46715;40.642;-7.920;2023-02-15T06:42:59;96845.78;;;10.08;67.48
60874;BME280;46715;40.642;-7.920;2023-02-15T06:44:59;96844.34;;;9.95;68.03
60874;BME280;46715;40.642;-7.920;2023-02-15T06:47:01;96852.16;;;9.90;68.28
60874;BME280;46715;40.642;-7.920;2023-02-15T06:49:02;96851.84;;;9.86;68.44
60874;BME280;46715;40.642;-7.920;2023-02-15T06:51:03;96851.84;;;9.86;68.32
60874;BME280;46715;40.642;-7.920;2023-02-15T06:53:03;96852.78;;;9.75;68.75
60874;BME280;46715;40.642;-7.920;2023-02-15T06:55:05;96852.78;;;9.75;68.78
60874;BME280;46715;40.642;-7.920;2023-02-15T06:57:06;96857.16;;;9.69;69.11
60874;BME280;46715;40.642;-7.920;2023-02-15T06:59:08;96851.06;;;9.59;69.39
60874;BME280;46715;40.642;-7.920;2023-02-15T07:01:09;96865.03;;;9.75;68.87
60874;BME280;46715;40.642;-7.920;2023-02-15T07:03:13;96861.94;;;9.78;68.67
60874;BME280;46715;40.642;-7.920;2023-02-15T07:05:14;96869.94;;;9.71;68.83
60874;BME280;46715;40.642;-7.920;2023-02-15T07:07:15;96877.44;;;9.67;68.94
60874;BME280;46715;40.642;-7.920;2023-02-15T07:09:15;96875.63;;;9.68;69.21
60874;BME280;46715;40.642;-7.920;2023-02-15T07:11:16;96875.78;;;9.56;69.15
60874;BME280;46715;40.642;-7.920;2023-02-15T07:13:36;96877.03;;;9.53;69.39
60874;BME280;46715;40.642;-7.920;2023-02-15T07:15:37;96874.66;;;9.47;69.70
60874;BME280;46715;40.642;-7.920;2023-02-15T07:17:37;96875.59;;;9.41;70.05
60874;BME280;46715;40.642;-7.920;2023-02-15T07:19:38;96886.63;;;9.48;69.85
60874;BME280;46715;40.642;-7.920;2023-02-15T07:21:39;96890.78;;;9.49;69.44
60874;BME280;46715;40.642;-7.920;2023-02-15T07:23:40;96884.16;;;9.36;70.32
60874;BME280;46715;40.642;-7.920;2023-02-15T07:25:41;96893.34;;;9.44;69.97
60874;BME280;46715;40.642;-7.920;2023-02-15T07:27:42;96889.22;;;9.48;69.84
60874;BME280;46715;40.642;-7.920;2023-02-15T07:29:45;96891.88;;;9.53;69.44
60874;BME280;46715;40.642;-7.920;2023-02-15T07:31:45;96889.69;;;9.67;69.18
60874;BME280;46715;40.642;-7.920;2023-02-15T07:33:46;96887.81;;;9.89;68.24
60874;BME280;46715;40.642;-7.920;2023-02-15T07:35:52;96892.06;;;9.96;67.71
60874;BME280;46715;40.642;-7.920;2023-02-15T07:37:54;96899.22;;;10.11;67.14
60874;BME280;46715;40.642;-7.920;2023-02-15T07:39:55;96900.78;;;10.12;67.54
60874;BME280;46715;40.642;-7.920;2023-02-15T07:41:56;96899.00;;;10.17;66.90
60874;BME280;46715;40.642;-7.920;2023-02-15T07:44:00;96912.28;;;10.16;66.93
60874;BME280;46715;40.642;-7.920;2023-02-15T07:46:03;96908.66;;;10.17;67.08
60874;BME280;46715;40.642;-7.920;2023-02-15T07:48:05;96907.88;;;10.21;66.80
60874;BME280;46715;40.642;-7.920;2023-02-15T07:50:07;96914.34;;;10.14;67.16
60874;BME280;46715;40.642;-7.920;2023-02-15T07:52:08;96915.56;;;10.33;66.39
60874;BME280;46715;40.642;-7.920;2023-02-15T07:54:09;96923.22;;;10.40;65.97
60874;BME280;46715;40.642;-7.920;2023-02-15T07:56:12;96917.34;;;10.60;65.20
60874;BME280;46715;40.642;-7.920;2023-02-15T07:58:13;96921.22;;;10.95;64.18
60874;BME280;46715;40.642;-7.920;2023-02-15T08:00:16;96909.88;;;11.27;62.40
60874;BME280;46715;40.642;-7.920;2023-02-15T08:02:17;96911.56;;;11.54;61.91
60874;BME280;46715;40.642;-7.920;2023-02-15T08:04:18;96917.63;;;11.75;60.62
60874;BME280;46715;40.642;-7.920;2023-02-15T08:06:20;96916.41;;;12.39;58.70
60874;BME280;46715;40.642;-7.920;2023-02-15T08:08:21;96921.81;;;13.15;56.90
60874;BME280;46715;40.642;-7.920;2023-02-15T08:10:30;96912.66;;;13.78;54.71
60874;BME280;46715;40.642;-7.920;2023-02-15T08:12:50;96922.34;;;14.52;52.49
60874;BME280;46715;40.642;-7.920;2023-02-15T08:14:51;96922.19;;;15.02;50.57
60874;BME280;46715;40.642;-7.920;2023-02-15T08:16:54;96915.66;;;15.23;49.57
60874;BME280;46715;40.642;-7.920;2023-02-15T08:19:02;96914.00;;;15.51;48.85
60874;BME280;46715;40.642;-7.920;2023-02-15T08:21:04;96923.16;;;15.54;48.65
60874;BME280;46715;40.642;-7.920;2023-02-15T08:23:05;96919.50;;;15.93;47.64
60874;BME280;46715;40.642;-7.920;2023-02-15T08:25:06;96914.66;;;16.00;47.17
60874;BME280;46715;40.642;-7.920;2023-02-15T08:27:08;96925.69;;;16.54;46.20
60874;BME280;46715;40.642;-7.920;2023-02-15T08:29:11;96925.38;;;16.89;45.62
60874;BME280;46715;40.642;-7.920;2023-02-15T08:31:13;96918.28;;;17.31;44.62
60874;BME280;46715;40.642;-7.920;2023-02-15T08:33:14;96927.47;;;17.48;43.71
60874;BME280;46715;40.642;-7.920;2023-02-15T08:35:15;96937.44;;;17.87;42.86
60874;BME280;46715;40.642;-7.920;2023-02-15T08:37:15;96935.09;;;18.22;42.57
60874;BME280;46715;40.642;-7.920;2023-02-15T08:39:16;96930.28;;;18.70;41.48
60874;BME280;46715;40.642;-7.920;2023-02-15T08:41:23;96935.31;;;19.12;40.43
60874;BME280;46715;40.642;-7.920;2023-02-15T08:43:24;96934.59;;;18.88;40.25
60874;BME280;46715;40.642;-7.920;2023-02-15T08:45:25;96930.53;;;18.60;40.65
60874;BME280;46715;40.642;-7.920;2023-02-15T08:47:26;96942.66;;;18.61;40.46
60874;BME280;46715;40.642;-7.920;2023-02-15T08:49:27;96943.31;;;18.66;40.55
60874;BME280;46715;40.642;-7.920;2023-02-15T08:51:31;96955.97;;;18.55;40.63
60874;BME280;46715;40.642;-7.920;2023-02-15T08:53:32;96959.09;;;18.80;40.23
60874;BME280;46715;40.642;-7.920;2023-02-15T08:55:33;96954.63;;;19.21;39.74
60874;BME280;46715;40.642;-7.920;2023-02-15T08:57:34;96952.75;;;19.62;38.73
60874;BME280;46715;40.642;-7.920;2023-02-15T08:59:35;96948.56;;;19.78;38.13
60874;BME280;46715;40.642;-7.920;2023-02-15T09:01:38;96931.47;;;19.84;38.03
60874;BME280;46715;40.642;-7.920;2023-02-15T09:03:39;96938.44;;;19.71;37.96
60874;BME280;46715;40.642;-7.920;2023-02-15T09:05:40;96945.94;;;19.87;37.60
60874;BME280;46715;40.642;-7.920;2023-02-15T09:07:41;96946.09;;;19.82;37.71
60874;BME280;46715;40.642;-7.920;2023-02-15T09:09:45;96936.69;;;19.67;37.61
60874;BME280;46715;40.642;-7.920;2023-02-15T09:11:49;96942.16;;;19.70;37.84
60874;BME280;46715;40.642;-7.920;2023-02-15T09:14:04;96954.34;;;19.89;37.29
60874;BME280;46715;40.642;-7.920;2023-02-15T09:16:07;96950.16;;;20.05;37.21
60874;BME280;46715;40.642;-7.920;2023-02-15T09:18:09;96955.13;;;20.07;36.96
60874;BME280;46715;40.642;-7.920;2023-02-15T09:20:12;96952.94;;;20.26;36.44
60874;BME280;46715;40.642;-7.920;2023-02-15T09:22:13;96955.91;;;20.34;36.65
60874;BME280;46715;40.642;-7.920;2023-02-15T09:24:15;96959.16;;;20.57;36.21
60874;BME280;46715;40.642;-7.920;2023-02-15T09:26:19;96958.38;;;20.74;36.38
60874;BME280;46715;40.642;-7.920;2023-02-15T09:28:20;96954.94;;;21.21;35.37
60874;BME280;46715;40.642;-7.920;2023-02-15T09:30:21;96971.78;;;20.60;36.04
60874;BME280;46715;40.642;-7.920;2023-02-15T09:32:21;96967.34;;;20.90;35.33
60874;BME280;46715;40.642;-7.920;2023-02-15T09:34:23;96978.53;;;21.14;35.26
60874;BME280;46715;40.642;-7.920;2023-02-15T09:36:36;96972.25;;;20.44;36.05
60874;BME280;46715;40.642;-7.920;2023-02-15T09:38:37;96973.75;;;20.98;35.67
60874;BME280;46715;40.642;-7.920;2023-02-15T09:40:42;96968.19;;;21.59;34.66
60874;BME280;46715;40.642;-7.920;2023-02-15T09:43:30;96972.28;;;21.78;34.01
60874;BME280;46715;40.642;-7.920;2023-02-15T09:46:01;96976.00;;;22.07;33.31
60874;BME280;46715;40.642;-7.920;2023-02-15T09:48:16;96973.06;;;21.49;33.87
60874;BME280;46715;40.642;-7.920;2023-02-15T10:02:54;97000.69;;;17.23;42.29
60874;BME280;46715;40.642;-7.920;2023-02-15T10:19:41;97031.75;;;15.74;46.21
60874;BME280;46715;40.642;-7.920;2023-02-15T10:26:25;97041.34;;;15.64;46.01
60874;BME280;46715;40.642;-7.920;2023-02-15T10:28:39;97053.38;;;15.71;46.43
60874;BME280;46715;40.642;-7.920;2023-02-15T10:30:49;97053.41;;;15.65;46.72
60874;BME280;46715;40.642;-7.920;2023-02-15T10:39:58;97053.47;;;16.28;45.54
60874;BME280;46715;40.642;-7.920;2023-02-15T10:51:40;97073.28;;;16.63;44.29
60874;BME280;46715;40.642;-7.920;2023-02-15T10:59:10;97074.19;;;16.92;44.38
60874;BME280;46715;40.642;-7.920;2023-02-15T11:01:28;97066.97;;;16.97;43.56
60874;BME280;46715;40.642;-7.920;2023-02-15T11:06:11;97072.78;;;17.13;43.82
60874;BME280;46715;40.642;-7.920;2023-02-15T11:08:13;97067.16;;;17.20;43.39
60874;BME280;46715;40.642;-7.920;2023-02-15T11:10:35;97065.28;;;17.20;42.89
60874;BME280;46715;40.642;-7.920;2023-02-15T11:12:40;97069.25;;;17.04;42.64
60874;BME280;46715;40.642;-7.920;2023-02-15T11:14:55;97070.81;;;17.05;43.26
60874;BME280;46715;40.642;-7.920;2023-02-15T11:17:03;97072.50;;;17.15;42.89
60874;BME280;46715;40.642;-7.920;2023-02-15T11:19:20;97078.13;;;17.08;42.74
60874;BME280;46715;40.642;-7.920;2023-02-15T11:21:26;97077.38;;;17.08;42.71
60874;BME280;46715;40.642;-7.920;2023-02-15T11:23:28;97083.38;;;16.94;43.71
60874;BME280;46715;40.642;-7.920;2023-02-15T11:25:33;97074.47;;;17.23;42.83
60874;BME280;46715;40.642;-7.920;2023-02-15T11:27:35;97082.31;;;17.28;43.07
60874;BME280;46715;40.642;-7.920;2023-02-15T11:30:04;97084.72;;;17.25;42.78
60874;BME280;46715;40.642;-7.920;2023-02-15T11:32:23;97085.72;;;17.29;42.53
60874;BME280;46715;40.642;-7.920;2023-02-15T11:34:49;97077.88;;;17.24;43.10
60874;BME280;46715;40.642;-7.920;2023-02-15T11:36:52;97081.19;;;17.15;42.77
60874;BME280;46715;40.642;-7.920;2023-02-15T11:38:59;97079.56;;;17.33;42.25
60874;BME280;46715;40.642;-7.920;2023-02-15T11:41:09;97077.06;;;17.56;42.11
60874;BME280;46715;40.642;-7.920;2023-02-15T11:45:45;97078.34;;;17.72;41.24
60874;BME280;46715;40.642;-7.920;2023-02-15T11:47:46;97077.16;;;17.65;41.15
60874;BME280;46715;40.642;-7.920;2023-02-15T11:49:46;97080.59;;;17.65;41.44
60874;BME280;46715;40.642;-7.920;2023-02-15T11:51:48;97080.28;;;17.67;42.92
60874;BME280;46715;40.642;-7.920;2023-02-15T11:53:51;97083.81;;;17.62;43.26
60874;BME280;46715;40.642;-7.920;2023-02-15T11:55:52;97081.09;;;17.67;42.23
60874;BME280;46715;40.642;-7.920;2023-02-15T11:58:00;97076.50;;;17.73;41.18
60874;BME280;46715;40.642;-7.920;2023-02-15T12:00:16;97077.34;;;17.82;40.68
60874;BME280;46715;40.642;-7.920;2023-02-15T12:02:21;97081.84;;;17.68;41.38
60874;BME280;46715;40.642;-7.920;2023-02-15T12:04:39;97070.25;;;17.69;40.01
60874;BME280;46715;40.642;-7.920;2023-02-15T12:06:45;97072.50;;;17.62;40.13
60874;BME280;46715;40.642;-7.920;2023-02-15T12:11:14;97073.06;;;17.72;40.86
60874;BME280;46715;40.642;-7.920;2023-02-15T12:13:19;97072.59;;;17.84;40.02
60874;BME280;46715;40.642;-7.920;2023-02-15T12:15:30;97067.22;;;17.76;39.46
60874;BME280;46715;40.642;-7.920;2023-02-15T12:18:15;97065.56;;;17.94;39.50
60874;BME280;46715;40.642;-7.920;2023-02-15T12:20:51;97061.53;;;17.82;39.25
60874;BME280;46715;40.642;-7.920;2023-02-15T12:22:30;97068.88;;;17.85;39.94
60874;BME280;46715;40.642;-7.920;2023-02-15T12:26:35;97066.72;;;18.01;40.21